createdAt,value
2022-10-03T00:01:21.851Z,98024.34
2022-10-03T00:03:59.636Z,98029.69
2022-10-03T00:06:36.387Z,98025.16
2022-10-03T00:09:15.539Z,98022.41
2022-10-03T00:11:54.234Z,98028.06
2022-10-03T00:14:30.111Z,98022.25
2022-10-03T00:17:04.608Z,98021.59
2022-10-03T00:19:41.895Z,98019.47
2022-10-03T00:22:19.716Z,98017.56
2022-10-03T00:24:59.876Z,98022.75
2022-10-03T00:27:33.469Z,98015.91
2022-10-03T00:30:19.830Z,98012.34
2022-10-03T00:33:05.562Z,98012.16
2022-10-03T00:35:49.220Z,98011.84
2022-10-03T00:38:28.365Z,98022.88
2022-10-03T00:41:11.753Z,98010.56
2022-10-03T00:44:27.368Z,98007.75
2022-10-03T00:47:08.575Z,98009.75
2022-10-03T00:50:13.181Z,98000.91
2022-10-03T00:52:55.874Z,98012.81
2022-10-03T00:55:33.980Z,97999.19
2022-10-03T00:58:17.817Z,97998.38
2022-10-03T01:00:51.540Z,97990.72
2022-10-03T01:03:28.563Z,97996.75
2022-10-03T01:06:06.213Z,98001.47
2022-10-03T01:09:05.428Z,97995.06
2022-10-03T01:11:54.282Z,97995.72
2022-10-03T01:14:32.319Z,97992.84
2022-10-03T01:17:11.281Z,97999.81
2022-10-03T01:19:56.029Z,97991.50
2022-10-03T01:22:39.037Z,97987.13
2022-10-03T01:25:13.488Z,98004.19
2022-10-03T01:28:01.280Z,97997.72
2022-10-03T01:30:36.651Z,97992.31
2022-10-03T01:33:10.835Z,97999.34
2022-10-03T01:35:49.091Z,97989.09
2022-10-03T01:38:20.882Z,97990.25
2022-10-03T01:40:55.377Z,97989.56
2022-10-03T01:43:33.146Z,97986.81
2022-10-03T01:46:10.390Z,97994.94
2022-10-03T01:48:43.952Z,97986.66
2022-10-03T01:51:16.848Z,97994.28
2022-10-03T01:54:00.157Z,97982.88
2022-10-03T01:56:32.121Z,97988.78
2022-10-03T01:59:04.715Z,97980.34
2022-10-03T02:01:41.555Z,97984.06
2022-10-03T02:04:16.623Z,97985.72
2022-10-03T02:06:53.835Z,97967.34
2022-10-03T02:09:29.615Z,97985.19
2022-10-03T02:12:10.051Z,97989.56
2022-10-03T02:14:52.867Z,97980.34
2022-10-03T02:17:47.976Z,97984.53
2022-10-03T02:20:25.726Z,97984.06
2022-10-03T02:22:55.649Z,97985.59
2022-10-03T02:25:27.470Z,97985.38
2022-10-03T02:28:24.927Z,97975.72
2022-10-03T02:31:07.767Z,97981.31
2022-10-03T02:33:54.018Z,97991.53
2022-10-03T02:36:59.767Z,97979.84
2022-10-03T02:39:55.053Z,97993.13
2022-10-03T02:42:51.547Z,97993.94
2022-10-03T02:45:52.798Z,98000.91
2022-10-03T02:48:49.687Z,97995.53
2022-10-03T02:51:45.436Z,97997.50
2022-10-03T02:54:44.443Z,97994.59
2022-10-03T02:57:46.301Z,97988.94
2022-10-03T03:00:18.797Z,97991.22
2022-10-03T03:03:21.448Z,97987.28
2022-10-03T03:06:18.011Z,97990.03
2022-10-03T03:09:23.438Z,97982.09
2022-10-03T03:12:14.549Z,97992.47
2022-10-03T03:15:14.971Z,97999.44
2022-10-03T03:17:48.110Z,97996.94
2022-10-03T03:20:28.807Z,98012.66
2022-10-03T03:23:17.137Z,98004.84
2022-10-03T03:26:10.489Z,98004.38
2022-10-03T03:28:45.873Z,98001.28
2022-10-03T03:31:16.384Z,97999.03
2022-10-03T03:33:54.598Z,97996.41
2022-10-03T03:36:30.561Z,97990.56
2022-10-03T03:39:07.420Z,98006.16
2022-10-03T03:41:50.533Z,97995.53
2022-10-03T03:44:46.367Z,97992.94
2022-10-03T03:47:28.239Z,97995.38
2022-10-03T03:50:08.636Z,97993.09
2022-10-03T03:52:47.373Z,97989.72
2022-10-03T03:55:30.807Z,97999.75
2022-10-03T03:58:14.284Z,98000.09
2022-10-03T04:00:59.761Z,97991.16
2022-10-03T04:03:47.039Z,97990.78
2022-10-03T04:06:27.174Z,97997.66
2022-10-03T04:09:08.858Z,97981.38
2022-10-03T04:11:49.955Z,97989.00
2022-10-03T04:14:39.222Z,97966.22
2022-10-03T04:17:44.395Z,97987.03
2022-10-03T04:20:20.329Z,97969.66
2022-10-03T04:22:59.009Z,97981.69
2022-10-03T04:25:38.099Z,97976.63
2022-10-03T04:28:27.599Z,97965.56
2022-10-03T04:31:07.312Z,97984.59
2022-10-03T04:33:45.172Z,97980.72
2022-10-03T04:36:41.509Z,97976.72
2022-10-03T04:39:13.556Z,97974.97
2022-10-03T04:41:47.421Z,97996.56
2022-10-03T04:44:30.412Z,97999.31
2022-10-03T04:47:02.896Z,97996.56
2022-10-03T04:49:36.072Z,97993.63
2022-10-03T04:52:06.786Z,97998.19
2022-10-03T04:54:48.244Z,97995.44
2022-10-03T04:57:24.609Z,97997.72
2022-10-03T04:59:59.755Z,97994.63
2022-10-03T05:02:38.430Z,97996.28
2022-10-03T05:05:20.841Z,98015.28
2022-10-03T05:07:56.159Z,98006.31
2022-10-03T05:10:36.777Z,98002.28
2022-10-03T05:13:11.754Z,98009.41
2022-10-03T05:15:45.975Z,98009.41
2022-10-03T05:18:22.352Z,98002.91
2022-10-03T05:20:57.466Z,98001.44
2022-10-03T05:23:34.386Z,98009.75
2022-10-03T05:26:39.917Z,98011.84
2022-10-03T05:29:03.437Z,97993.81
2022-10-03T05:31:39.540Z,98014.28
2022-10-03T05:34:22.124Z,98015.88
2022-10-03T05:37:17.923Z,97992.56
2022-10-03T05:39:53.082Z,98013.97
2022-10-03T05:42:39.142Z,98013.81
2022-10-03T05:45:21.812Z,98010.22
2022-10-03T05:47:52.973Z,98013.81
2022-10-03T05:50:43.513Z,98017.69
2022-10-03T05:53:57.429Z,98016.69
2022-10-03T05:56:41.110Z,98011.13
2022-10-03T05:59:23.442Z,98023.31
2022-10-03T06:02:18.074Z,98012.47
2022-10-03T06:05:12.675Z,98021.56
2022-10-03T06:07:52.209Z,98022.22
2022-10-03T06:10:37.083Z,98026.22
2022-10-03T06:13:30.616Z,98035.63
2022-10-03T06:16:01.702Z,98027.41
2022-10-03T06:18:55.092Z,98010.38
2022-10-03T06:21:33.583Z,98024.25
2022-10-03T06:24:26.794Z,98046.13
2022-10-03T06:27:17.678Z,98042.25
2022-10-03T06:30:12.245Z,98038.44
2022-10-03T06:33:05.383Z,98034.69
2022-10-03T06:36:20.221Z,98031.09
2022-10-03T06:39:27.740Z,98028.25
2022-10-03T06:42:13.406Z,98030.28
2022-10-03T06:45:10.968Z,98025.78
2022-10-03T06:47:51.449Z,98036.03
2022-10-03T06:50:32.489Z,98042.69
2022-10-03T06:53:16.059Z,98030.78
2022-10-03T06:56:03.929Z,98048.59
2022-10-03T06:58:53.194Z,98046.53
2022-10-03T07:01:53.864Z,98051.59
2022-10-03T07:04:35.868Z,98027.44
2022-10-03T07:07:16.004Z,98061.28
2022-10-03T07:10:13.042Z,98060.84
2022-10-03T07:13:07.068Z,98049.31
2022-10-03T07:16:25.305Z,98059.00
2022-10-03T07:19:14.115Z,98058.59
2022-10-03T07:22:20.018Z,98057.38
2022-10-03T07:25:21.285Z,98052.09
2022-10-03T07:28:04.354Z,98051.47
2022-10-03T07:30:33.773Z,98053.91
2022-10-03T07:33:29.002Z,98050.63
2022-10-03T07:36:50.358Z,98052.72
2022-10-03T07:39:58.847Z,98050.09
2022-10-03T07:42:52.820Z,98046.25
2022-10-03T07:45:34.811Z,98053.22
2022-10-03T07:48:38.184Z,98058.34
2022-10-03T07:51:15.136Z,98043.56
2022-10-03T07:54:30.886Z,98046.13
2022-10-03T07:57:21.987Z,98050.84
2022-10-03T08:00:05.873Z,98051.09
2022-10-03T08:03:13.092Z,98044.59
2022-10-03T08:05:56.484Z,98052.81
2022-10-03T08:08:53.416Z,98053.88
2022-10-03T08:11:33.706Z,98062.00
2022-10-03T08:14:08.907Z,98066.13
2022-10-03T08:17:04.283Z,98063.72
2022-10-03T08:19:54.839Z,98069.38
2022-10-03T08:22:38.181Z,98053.94
2022-10-03T08:25:28.101Z,98065.28
2022-10-03T08:28:19.114Z,98074.16
2022-10-03T08:31:13.298Z,98069.69
2022-10-03T08:33:53.914Z,98066.84
2022-10-03T08:36:42.686Z,98072.66
2022-10-03T08:39:13.108Z,98070.22
2022-10-03T08:42:17.923Z,98069.09
2022-10-03T08:44:59.549Z,98073.13
2022-10-03T08:48:09.495Z,98065.63
2022-10-03T08:51:02.736Z,98069.16
2022-10-03T08:54:02.747Z,98068.03
2022-10-03T08:56:41.329Z,98067.25
2022-10-03T08:59:53.963Z,98072.50
2022-10-03T09:03:31.838Z,98073.16
2022-10-03T09:06:13.456Z,98068.84
2022-10-03T09:09:07.829Z,98059.88
2022-10-03T09:11:47.653Z,98058.13
2022-10-03T09:14:33.178Z,98071.44
2022-10-03T09:17:08.863Z,98070.91
2022-10-03T09:19:57.625Z,98069.06
2022-10-03T09:22:59.220Z,98056.66
2022-10-03T09:25:40.633Z,98064.84
2022-10-03T09:28:37.502Z,98073.91
2022-10-03T09:31:19.554Z,98077.19
2022-10-03T09:34:14.442Z,98085.91
2022-10-03T09:37:14.734Z,98075.84
2022-10-03T09:40:17.232Z,98082.75
2022-10-03T09:43:15.094Z,98076.28
2022-10-03T09:46:14.441Z,98078.13
2022-10-03T09:49:03.704Z,98086.72
2022-10-03T09:51:41.169Z,98084.59
2022-10-03T09:55:01.700Z,98070.84
2022-10-03T09:58:11.808Z,98081.53
2022-10-03T10:00:52.980Z,98077.25
2022-10-03T10:03:37.940Z,98075.03
2022-10-03T10:06:18.889Z,98049.66
2022-10-03T10:09:22.916Z,98085.97
2022-10-03T10:12:16.956Z,98073.81
2022-10-03T10:15:11.341Z,98076.94
2022-10-03T10:18:11.588Z,98068.91
2022-10-03T10:21:25.314Z,98092.94
2022-10-03T10:24:02.579Z,98090.19
2022-10-03T10:27:06.337Z,98096.59
2022-10-03T10:29:59.374Z,98085.19
2022-10-03T10:33:07.415Z,98083.66
2022-10-03T10:35:52.978Z,98091.69
2022-10-03T10:38:43.777Z,98094.09
2022-10-03T10:41:38.772Z,98092.34
2022-10-03T10:44:54.180Z,98086.94
2022-10-03T10:48:06.889Z,98089.66
2022-10-03T10:51:11.987Z,98093.09
2022-10-03T10:54:05.123Z,98086.09
2022-10-03T10:57:09.673Z,98093.53
2022-10-03T11:00:12.930Z,98108.84
2022-10-03T11:03:20.284Z,98109.81
2022-10-03T11:06:22.491Z,98101.75
2022-10-03T11:09:37.427Z,98110.06
2022-10-03T11:12:45.821Z,98108.44
2022-10-03T11:15:47.815Z,98107.63
2022-10-03T11:18:33.500Z,98117.84
2022-10-03T11:21:40.481Z,98124.94
2022-10-03T11:24:41.608Z,98120.53
2022-10-03T11:27:42.253Z,98130.81
2022-10-03T11:30:55.785Z,98139.38
2022-10-03T11:34:06.659Z,98139.41
2022-10-03T11:36:52.148Z,98136.63
2022-10-03T11:39:25.002Z,98138.34
2022-10-03T11:41:57.955Z,98148.00
2022-10-03T11:44:28.999Z,98135.28
2022-10-03T11:47:11.331Z,98142.94
2022-10-03T11:50:31.103Z,98142.84
2022-10-03T11:53:09.291Z,98142.47
2022-10-03T11:55:41.709Z,98140.53
2022-10-03T11:58:36.223Z,98135.38
2022-10-03T12:01:19.512Z,98140.31
2022-10-03T12:03:54.201Z,98148.28
2022-10-03T12:07:10.328Z,98147.91
2022-10-03T12:09:48.080Z,98151.47
2022-10-03T12:12:22.195Z,98144.09
2022-10-03T12:14:52.403Z,98148.50
2022-10-03T12:17:27.384Z,98151.94
2022-10-03T12:20:04.228Z,98157.28
2022-10-03T12:22:45.813Z,98149.03
2022-10-03T12:25:23.424Z,98147.06
2022-10-03T12:27:59.639Z,98161.88
2022-10-03T12:30:30.523Z,98169.59
2022-10-03T12:33:09.903Z,98159.03
2022-10-03T12:35:45.457Z,98171.75
2022-10-03T12:38:39.273Z,98172.88
2022-10-03T12:41:19.063Z,98176.69
2022-10-03T12:43:56.913Z,98178.44
2022-10-03T12:46:32.622Z,98195.50
2022-10-03T12:49:04.528Z,98183.81
2022-10-03T12:51:49.315Z,98191.84
2022-10-03T12:54:29.304Z,98185.41
2022-10-03T12:57:12.944Z,98191.59
2022-10-03T12:59:42.851Z,98191.41
2022-10-03T13:02:25.416Z,98188.91
2022-10-03T13:05:13.363Z,98191.69
2022-10-03T13:07:52.540Z,98194.59
2022-10-03T13:10:29.647Z,98194.88
2022-10-03T13:13:06.876Z,98178.34
2022-10-03T13:15:45.620Z,98172.81
2022-10-03T13:18:22.678Z,98186.28
2022-10-03T13:20:57.252Z,98176.94
2022-10-03T13:23:39.866Z,98187.22
2022-10-03T13:26:17.937Z,98196.84
2022-10-03T13:29:02.994Z,98188.72
2022-10-03T13:31:33.448Z,98188.59
2022-10-03T13:34:03.790Z,98187.44
2022-10-03T13:36:36.320Z,98190.88
2022-10-03T13:39:19.465Z,98184.31
2022-10-03T13:42:10.495Z,98202.28
2022-10-03T13:44:39.969Z,98199.56
2022-10-03T13:47:43.169Z,98203.81
2022-10-03T13:50:17.472Z,98204.63
2022-10-03T13:52:49.806Z,98202.81
2022-10-03T13:55:28.908Z,98214.66
2022-10-03T13:58:17.380Z,98197.75
2022-10-03T14:00:53.063Z,98205.91
2022-10-03T14:03:26.904Z,98215.00
2022-10-03T14:06:08.350Z,98197.06
2022-10-03T14:08:54.268Z,98196.22
2022-10-03T14:11:35.386Z,98197.78
2022-10-03T14:14:16.707Z,98207.66
2022-10-03T14:16:49.297Z,98208.16
2022-10-03T14:19:24.469Z,98219.16
2022-10-03T14:22:02.319Z,98207.63
2022-10-03T14:24:44.083Z,98206.50
2022-10-03T14:27:17.382Z,98207.75
2022-10-03T14:29:53.659Z,98200.38
2022-10-03T14:32:46.877Z,98211.41
2022-10-03T14:35:27.092Z,98215.00
2022-10-03T14:37:59.657Z,98221.59
2022-10-03T14:40:32.924Z,98227.91
2022-10-03T14:43:20.192Z,98241.13
2022-10-03T14:45:50.886Z,98223.53
2022-10-03T14:48:21.531Z,98221.09
2022-10-03T14:50:54.755Z,98230.72
2022-10-03T14:53:25.691Z,98229.78
2022-10-03T14:56:00.111Z,98234.88
2022-10-03T14:58:32.787Z,98226.69
2022-10-03T15:01:10.823Z,98228.84
2022-10-03T15:03:40.803Z,98232.44
2022-10-03T15:06:34.512Z,98223.13
2022-10-03T15:09:04.257Z,98226.09
2022-10-03T15:11:35.670Z,98226.41
2022-10-03T15:14:07.077Z,98220.88
2022-10-03T15:16:37.712Z,98238.78
2022-10-03T15:19:10.819Z,98238.59
2022-10-03T15:21:43.612Z,98246.56
2022-10-03T15:24:15.310Z,98244.91
2022-10-03T15:26:44.588Z,98238.59
2022-10-03T15:29:17.988Z,98237.63
2022-10-03T15:31:48.715Z,98239.25
2022-10-03T15:34:19.521Z,98229.66
2022-10-03T15:36:51.042Z,98232.91
2022-10-03T15:39:20.097Z,98242.94
2022-10-03T15:41:52.577Z,98240.41
2022-10-03T15:44:29.004Z,98241.84
2022-10-03T15:47:01.768Z,98256.66
2022-10-03T15:49:32.787Z,98249.50
2022-10-03T15:52:09.405Z,98253.41
2022-10-03T15:54:38.876Z,98259.56
2022-10-03T15:57:08.758Z,98261.34
2022-10-03T15:59:40.811Z,98262.00
2022-10-03T16:02:15.983Z,98265.50
2022-10-03T16:04:46.105Z,98264.19
2022-10-03T16:07:22.310Z,98267.00
2022-10-03T16:09:54.573Z,98254.78
2022-10-03T16:12:54.785Z,98276.94
2022-10-03T16:15:28.578Z,98269.81
2022-10-03T16:17:58.771Z,98283.59
2022-10-03T16:20:29.561Z,98274.56
2022-10-03T16:22:59.244Z,98277.81
2022-10-03T16:25:30.212Z,98288.63
2022-10-03T16:28:02.131Z,98285.69
2022-10-03T16:30:36.668Z,98278.00
2022-10-03T16:33:12.396Z,98280.28
2022-10-03T16:35:44.874Z,98294.41
2022-10-03T16:38:20.525Z,98296.69
2022-10-03T16:40:57.409Z,98294.06
2022-10-03T16:43:26.164Z,98287.75
2022-10-03T16:45:56.773Z,98290.13
2022-10-03T16:48:44.452Z,98294.72
2022-10-03T16:51:20.310Z,98297.81
2022-10-03T16:53:50.820Z,98296.03
2022-10-03T16:56:21.039Z,98301.88
2022-10-03T16:58:53.405Z,98305.44
2022-10-03T17:01:32.952Z,98305.16
2022-10-03T17:04:16.920Z,98306.69
2022-10-03T17:06:47.758Z,98307.06
2022-10-03T17:09:24.962Z,98300.34
2022-10-03T17:11:55.863Z,98300.91
2022-10-03T17:14:25.278Z,98306.19
2022-10-03T17:17:03.004Z,98297.50
2022-10-03T17:19:35.244Z,98295.88
2022-10-03T17:22:08.900Z,98309.19
2022-10-03T17:24:43.491Z,98301.56
2022-10-03T17:27:18.063Z,98300.03
2022-10-03T17:29:49.595Z,98299.69
2022-10-03T17:32:24.367Z,98303.75
2022-10-03T17:34:58.637Z,98311.06
2022-10-03T17:37:52.826Z,98314.19
2022-10-03T17:40:24.151Z,98310.91
2022-10-03T17:42:55.571Z,98302.63
2022-10-03T17:45:33.910Z,98311.25
2022-10-03T17:48:11.254Z,98316.28
2022-10-03T17:50:48.452Z,98308.47
2022-10-03T17:53:20.829Z,98313.66
2022-10-03T17:55:52.184Z,98308.53
2022-10-03T17:58:22.367Z,98305.66
2022-10-03T18:01:03.018Z,98315.47
2022-10-03T18:03:34.824Z,98319.50
2022-10-03T18:06:24.934Z,98312.03
2022-10-03T18:08:53.795Z,98308.63
2022-10-03T18:11:29.198Z,98313.72
2022-10-03T18:14:04.127Z,98311.63
2022-10-03T18:16:35.154Z,98320.41
2022-10-03T18:19:32.995Z,98317.16
2022-10-03T18:22:08.328Z,98315.50
2022-10-03T18:24:47.254Z,98321.00
2022-10-03T18:27:35.913Z,98323.63
2022-10-03T18:30:06.632Z,98325.88
2022-10-03T18:32:39.669Z,98320.81
2022-10-03T18:35:15.643Z,98317.91
2022-10-03T18:38:02.877Z,98329.63
2022-10-03T18:40:32.945Z,98336.66
2022-10-03T18:43:01.587Z,98329.41
2022-10-03T18:45:32.547Z,98333.41
2022-10-03T18:48:07.832Z,98328.78
2022-10-03T18:50:51.307Z,98331.72
2022-10-03T18:53:26.899Z,98334.78
2022-10-03T18:55:59.701Z,98340.56
2022-10-03T18:58:30.778Z,98334.03
2022-10-03T19:01:00.166Z,98350.72
2022-10-03T19:03:33.250Z,98340.34
2022-10-03T19:06:05.863Z,98346.19
2022-10-03T19:08:38.477Z,98354.06
2022-10-03T19:11:14.786Z,98362.56
2022-10-03T19:13:49.420Z,98357.22
2022-10-03T19:16:29.416Z,98352.28
2022-10-03T19:19:04.757Z,98360.31
2022-10-03T19:21:38.961Z,98353.00
2022-10-03T19:24:12.533Z,98347.81
2022-10-03T19:26:46.627Z,98344.22
2022-10-03T19:29:16.796Z,98358.00
2022-10-03T19:31:47.406Z,98363.72
2022-10-03T19:34:20.425Z,98358.47
2022-10-03T19:36:51.770Z,98359.59
2022-10-03T19:39:20.920Z,98369.31
2022-10-03T19:41:53.713Z,98372.41
2022-10-03T19:44:24.275Z,98369.88
2022-10-03T19:47:00.283Z,98362.25
2022-10-03T19:49:37.322Z,98355.97
2022-10-03T19:52:20.790Z,98364.50
2022-10-03T19:54:53.100Z,98358.38
2022-10-03T19:57:26.121Z,98356.72
2022-10-03T19:59:56.605Z,98368.50
2022-10-03T20:02:26.479Z,98366.25
2022-10-03T20:04:55.913Z,98366.69
2022-10-03T20:07:46.180Z,98364.06
2022-10-03T20:10:26.461Z,98363.56
2022-10-03T20:12:54.897Z,98367.19
2022-10-03T20:15:24.746Z,98360.16
2022-10-03T20:17:53.970Z,98358.16
2022-10-03T20:20:23.951Z,98359.81
2022-10-03T20:22:54.853Z,98356.28
2022-10-03T20:25:30.530Z,98361.44
2022-10-03T20:28:01.507Z,98351.78
2022-10-03T20:30:36.859Z,98361.31
2022-10-03T20:33:06.771Z,98362.38
2022-10-03T20:35:40.821Z,98357.16
2022-10-03T20:38:17.434Z,98353.91
2022-10-03T20:40:47.979Z,98360.00
2022-10-03T20:43:28.857Z,98357.41
2022-10-03T20:46:10.718Z,98353.03
2022-10-03T20:48:42.983Z,98362.94
2022-10-03T20:51:22.322Z,98345.91
2022-10-03T20:53:55.001Z,98345.00
2022-10-03T20:56:27.722Z,98350.63
2022-10-03T20:58:58.053Z,98345.50
2022-10-03T21:01:27.751Z,98343.56
2022-10-03T21:04:05.017Z,98350.00
2022-10-03T21:06:37.330Z,98349.47
2022-10-03T21:09:07.881Z,98346.25
2022-10-03T21:11:38.801Z,98354.88
2022-10-03T21:14:15.872Z,98348.41
2022-10-03T21:16:47.082Z,98351.94
2022-10-03T21:19:18.156Z,98355.50
2022-10-03T21:21:51.354Z,98362.19
2022-10-03T21:24:26.867Z,98355.22
2022-10-03T21:26:58.581Z,98360.53
2022-10-03T21:29:29.805Z,98347.88
2022-10-03T21:32:18.382Z,98359.25
2022-10-03T21:34:50.959Z,98355.22
2022-10-03T21:37:25.492Z,98346.78
2022-10-03T21:40:05.016Z,98356.41
2022-10-03T21:42:36.978Z,98360.75
2022-10-03T21:45:15.570Z,98357.84
2022-10-03T21:47:47.874Z,98358.63
2022-10-03T21:50:20.776Z,98359.56
2022-10-03T21:52:59.777Z,98361.41
2022-10-03T21:55:52.131Z,98355.78
2022-10-03T21:58:46.355Z,98366.63
2022-10-03T22:01:17.494Z,98354.56
2022-10-03T22:03:51.717Z,98353.75
2022-10-03T22:06:23.598Z,98350.63
2022-10-03T22:08:51.925Z,98344.72
2022-10-03T22:11:30.772Z,98350.06
2022-10-03T22:14:08.850Z,98350.50
2022-10-03T22:16:40.609Z,98345.63
2022-10-03T22:19:18.385Z,98357.22
2022-10-03T22:21:58.523Z,98354.72
2022-10-03T22:24:33.164Z,98357.13
2022-10-03T22:27:06.921Z,98356.34
2022-10-03T22:29:41.914Z,98350.00
2022-10-03T22:32:13.536Z,98359.22
2022-10-03T22:34:48.858Z,98356.09
2022-10-03T22:37:17.187Z,98343.41
2022-10-03T22:39:48.510Z,98354.41
2022-10-03T22:42:19.099Z,98351.56
2022-10-03T22:44:49.296Z,98353.66
2022-10-03T22:47:20.956Z,98354.31
2022-10-03T22:49:51.784Z,98355.50
2022-10-03T22:52:22.729Z,98354.31
2022-10-03T22:54:52.274Z,98349.06
2022-10-03T22:57:23.505Z,98346.69
2022-10-03T22:59:51.958Z,98351.75
2022-10-03T23:02:27.789Z,98346.56
2022-10-03T23:04:58.908Z,98347.94
2022-10-03T23:07:45.668Z,98339.41
2022-10-03T23:10:33.166Z,98346.00
2022-10-03T23:13:07.068Z,98339.22
2022-10-03T23:15:37.737Z,98332.47
2022-10-03T23:18:22.796Z,98338.25
2022-10-03T23:21:06.811Z,98343.28
2022-10-03T23:23:43.262Z,98343.75
2022-10-03T23:26:45.655Z,98335.44
2022-10-03T23:29:16.096Z,98346.69
2022-10-03T23:31:56.306Z,98341.44
2022-10-03T23:35:12.861Z,98339.03
2022-10-03T23:37:45.392Z,98340.69
2022-10-03T23:40:44.084Z,98334.78
2022-10-03T23:43:34.681Z,98338.53
2022-10-03T23:46:06.454Z,98333.22
2022-10-03T23:48:42.571Z,98329.19
2022-10-03T23:51:13.844Z,98332.91
2022-10-03T23:53:44.245Z,98325.53
2022-10-03T23:56:28.130Z,98323.75
2022-10-03T23:58:57.793Z,98322.31
